Terminal Aerodrome Forecast
Issued by NWS

Home | Current Version | Previous Version | Text Only | Print | Product List | Glossary On
Versions: 1 2 3 4 5 6 7 8 9 10 11 12 13 14 15 16 17 18 19 20 21 22 23 24 25 26 27 28 29 30 31 32
000
FTUS41 KBOX 091131
TAFACK
TAF
KACK 091131Z 0912/1012 02007KT P6SM BKN015 OVC035
     FM091800 02011KT P6SM BKN020
     FM100100 02007KT P6SM OVC020
     FM100700 04006KT P6SM VCSH OVC015=

USA.gov is the U.S. government's official web portal to all federal, state and local government web resources and services.